sensor_id;sensor_type;location;lat;lon;timestamp;temperature;humidity
41985;DHT22;28319;48.116;10.818;2023-11-19T00:01:51;6.60;99.90
41985;DHT22;28319;48.116;10.818;2023-11-19T00:06:53;6.60;99.90
41985;DHT22;28319;48.116;10.818;2023-11-19T00:11:55;6.60;99.90
41985;DHT22;28319;48.116;10.818;2023-11-19T00:16:59;6.70;99.90
41985;DHT22;28319;48.116;10.818;2023-11-19T00:22:01;6.80;99.90
41985;DHT22;28319;48.116;10.818;2023-11-19T00:27:04;7.00;99.90
41985;DHT22;28319;48.116;10.818;2023-11-19T00:32:10;7.10;99.90
41985;DHT22;28319;48.116;10.818;2023-11-19T00:37:12;7.20;99.90
41985;DHT22;28319;48.116;10.818;2023-11-19T00:42:14;7.20;99.90
41985;DHT22;28319;48.116;10.818;2023-11-19T00:47:18;7.30;99.90
41985;DHT22;28319;48.116;10.818;2023-11-19T00:52:20;7.30;99.90
41985;DHT22;28319;48.116;10.818;2023-11-19T00:57:23;7.40;99.90
41985;DHT22;28319;48.116;10.818;2023-11-19T01:02:28;7.40;99.90
41985;DHT22;28319;48.116;10.818;2023-11-19T01:07:30;7.50;99.90
41985;DHT22;28319;48.116;10.818;2023-11-19T01:12:32;7.50;99.90
41985;DHT22;28319;48.116;10.818;2023-11-19T01:17:36;7.50;99.90
41985;DHT22;28319;48.116;10.818;2023-11-19T01:22:38;7.50;99.90
41985;DHT22;28319;48.116;10.818;2023-11-19T01:27:41;7.50;99.90
41985;DHT22;28319;48.116;10.818;2023-11-19T01:32:44;7.50;99.90
41985;DHT22;28319;48.116;10.818;2023-11-19T01:37:46;7.50;99.90
41985;DHT22;28319;48.116;10.818;2023-11-19T01:42:48;7.50;99.90
41985;DHT22;28319;48.116;10.818;2023-11-19T01:47:54;7.60;99.90
41985;DHT22;28319;48.116;10.818;2023-11-19T01:52:57;7.60;99.90
41985;DHT22;28319;48.116;10.818;2023-11-19T01:58:00;7.60;99.90
41985;DHT22;28319;48.116;10.818;2023-11-19T02:03:06;7.60;99.90
41985;DHT22;28319;48.116;10.818;2023-11-19T02:08:09;7.70;99.90
41985;DHT22;28319;48.116;10.818;2023-11-19T02:13:11;7.80;99.90
41985;DHT22;28319;48.116;10.818;2023-11-19T02:18:20;7.80;99.90
41985;DHT22;28319;48.116;10.818;2023-11-19T02:23:23;7.80;99.90
41985;DHT22;28319;48.116;10.818;2023-11-19T02:28:27;7.90;99.90
41985;DHT22;28319;48.116;10.818;2023-11-19T02:33:30;7.90;99.90
41985;DHT22;28319;48.116;10.818;2023-11-19T02:38:33;7.90;99.90
41985;DHT22;28319;48.116;10.818;2023-11-19T02:43:37;7.90;99.90
41985;DHT22;28319;48.116;10.818;2023-11-19T02:48:39;8.00;99.90
41985;DHT22;28319;48.116;10.818;2023-11-19T02:53:42;8.00;99.90
41985;DHT22;28319;48.116;10.818;2023-11-19T02:58:46;8.00;99.90
41985;DHT22;28319;48.116;10.818;2023-11-19T03:03:49;8.10;99.90
41985;DHT22;28319;48.116;10.818;2023-11-19T03:08:55;8.20;99.90
41985;DHT22;28319;48.116;10.818;2023-11-19T03:13:59;8.20;99.90
41985;DHT22;28319;48.116;10.818;2023-11-19T03:19:01;8.30;99.90
41985;DHT22;28319;48.116;10.818;2023-11-19T03:24:05;8.30;99.90
41985;DHT22;28319;48.116;10.818;2023-11-19T03:29:10;8.40;99.90
41985;DHT22;28319;48.116;10.818;2023-11-19T03:34:12;8.40;99.90
41985;DHT22;28319;48.116;10.818;2023-11-19T03:39:14;8.50;99.90
41985;DHT22;28319;48.116;10.818;2023-11-19T03:44:17;8.60;99.90
41985;DHT22;28319;48.116;10.818;2023-11-19T03:49:20;8.60;99.90
41985;DHT22;28319;48.116;10.818;2023-11-19T03:54:22;8.70;99.90
41985;DHT22;28319;48.116;10.818;2023-11-19T03:59:29;8.70;99.90
41985;DHT22;28319;48.116;10.818;2023-11-19T04:04:33;8.70;99.90
41985;DHT22;28319;48.116;10.818;2023-11-19T04:09:35;8.70;99.90
41985;DHT22;28319;48.116;10.818;2023-11-19T04:14:39;8.70;99.90
41985;DHT22;28319;48.116;10.818;2023-11-19T04:19:42;8.70;99.90
41985;DHT22;28319;48.116;10.818;2023-11-19T04:24:44;8.70;99.90
41985;DHT22;28319;48.116;10.818;2023-11-19T04:29:48;8.70;99.90
41985;DHT22;28319;48.116;10.818;2023-11-19T04:34:51;8.70;99.90
41985;DHT22;28319;48.116;10.818;2023-11-19T04:39:53;8.80;99.90
41985;DHT22;28319;48.116;10.818;2023-11-19T04:44:56;8.80;99.90
41985;DHT22;28319;48.116;10.818;2023-11-19T04:49:58;8.80;99.90
41985;DHT22;28319;48.116;10.818;2023-11-19T04:55:01;8.80;99.90
41985;DHT22;28319;48.116;10.818;2023-11-19T05:00:05;8.80;99.90
41985;DHT22;28319;48.116;10.818;2023-11-19T05:05:08;8.80;99.90
41985;DHT22;28319;48.116;10.818;2023-11-19T05:10:10;8.80;99.90
41985;DHT22;28319;48.116;10.818;2023-11-19T05:15:14;8.80;99.90
41985;DHT22;28319;48.116;10.818;2023-11-19T05:20:16;8.70;99.90
41985;DHT22;28319;48.116;10.818;2023-11-19T05:25:18;8.70;99.90
41985;DHT22;28319;48.116;10.818;2023-11-19T05:30:23;8.80;99.90
41985;DHT22;28319;48.116;10.818;2023-11-19T05:35:25;8.80;99.90
41985;DHT22;28319;48.116;10.818;2023-11-19T05:40:27;8.80;99.90
41985;DHT22;28319;48.116;10.818;2023-11-19T05:45:31;8.90;99.90
41985;DHT22;28319;48.116;10.818;2023-11-19T05:50:33;8.90;99.90
41985;DHT22;28319;48.116;10.818;2023-11-19T05:55:35;8.90;99.90
41985;DHT22;28319;48.116;10.818;2023-11-19T06:00:47;9.00;99.90
41985;DHT22;28319;48.116;10.818;2023-11-19T06:05:49;9.00;99.90
41985;DHT22;28319;48.116;10.818;2023-11-19T06:10:51;8.90;99.90
41985;DHT22;28319;48.116;10.818;2023-11-19T06:15:55;9.00;99.90
41985;DHT22;28319;48.116;10.818;2023-11-19T06:20:57;9.00;99.90
41985;DHT22;28319;48.116;10.818;2023-11-19T06:25:59;9.00;99.90
41985;DHT22;28319;48.116;10.818;2023-11-19T06:31:03;9.10;99.90
41985;DHT22;28319;48.116;10.818;2023-11-19T06:36:06;9.10;99.90
41985;DHT22;28319;48.116;10.818;2023-11-19T06:41:09;9.20;99.90
41985;DHT22;28319;48.116;10.818;2023-11-19T06:46:24;9.20;99.90
41985;DHT22;28319;48.116;10.818;2023-11-19T06:51:26;9.30;99.90
41985;DHT22;28319;48.116;10.818;2023-11-19T06:56:28;9.30;99.90
41985;DHT22;28319;48.116;10.818;2023-11-19T07:01:35;9.30;99.90
41985;DHT22;28319;48.116;10.818;2023-11-19T07:06:38;9.40;99.90
41985;DHT22;28319;48.116;10.818;2023-11-19T07:11:42;9.40;99.90
41985;DHT22;28319;48.116;10.818;2023-11-19T07:16:46;9.50;99.90
41985;DHT22;28319;48.116;10.818;2023-11-19T07:21:48;9.50;99.90
41985;DHT22;28319;48.116;10.818;2023-11-19T07:26:50;9.50;99.90
41985;DHT22;28319;48.116;10.818;2023-11-19T07:31:54;9.50;99.90
41985;DHT22;28319;48.116;10.818;2023-11-19T07:36:56;9.50;99.90
41985;DHT22;28319;48.116;10.818;2023-11-19T07:42:03;9.60;99.90
41985;DHT22;28319;48.116;10.818;2023-11-19T07:47:06;9.60;99.90
41985;DHT22;28319;48.116;10.818;2023-11-19T07:52:08;9.70;99.90
41985;DHT22;28319;48.116;10.818;2023-11-19T07:57:10;9.70;99.90
41985;DHT22;28319;48.116;10.818;2023-11-19T08:02:14;9.80;99.90
41985;DHT22;28319;48.116;10.818;2023-11-19T08:07:16;9.80;99.90
41985;DHT22;28319;48.116;10.818;2023-11-19T08:12:18;9.90;99.90
41985;DHT22;28319;48.116;10.818;2023-11-19T08:17:21;10.00;99.90
41985;DHT22;28319;48.116;10.818;2023-11-19T08:22:24;9.90;99.90
41985;DHT22;28319;48.116;10.818;2023-11-19T08:27:26;10.00;99.90
41985;DHT22;28319;48.116;10.818;2023-11-19T08:32:30;10.10;99.90
41985;DHT22;28319;48.116;10.818;2023-11-19T08:37:32;10.10;99.90
41985;DHT22;28319;48.116;10.818;2023-11-19T08:42:34;10.10;99.90
41985;DHT22;28319;48.116;10.818;2023-11-19T08:47:37;10.20;99.90
41985;DHT22;28319;48.116;10.818;2023-11-19T08:52:41;10.20;99.90
41985;DHT22;28319;48.116;10.818;2023-11-19T08:57:43;10.20;99.90
41985;DHT22;28319;48.116;10.818;2023-11-19T09:02:47;10.30;99.90
41985;DHT22;28319;48.116;10.818;2023-11-19T09:07:49;10.30;99.90
41985;DHT22;28319;48.116;10.818;2023-11-19T09:12:51;10.40;99.90
41985;DHT22;28319;48.116;10.818;2023-11-19T09:17:54;10.40;99.90
41985;DHT22;28319;48.116;10.818;2023-11-19T09:22:57;10.40;99.90
41985;DHT22;28319;48.116;10.818;2023-11-19T09:27:59;10.40;99.90
41985;DHT22;28319;48.116;10.818;2023-11-19T09:33:02;10.50;99.90
41985;DHT22;28319;48.116;10.818;2023-11-19T09:38:04;10.50;99.90
41985;DHT22;28319;48.116;10.818;2023-11-19T09:43:08;10.60;99.90
41985;DHT22;28319;48.116;10.818;2023-11-19T09:48:12;10.60;99.90
41985;DHT22;28319;48.116;10.818;2023-11-19T09:53:14;10.70;99.90
41985;DHT22;28319;48.116;10.818;2023-11-19T09:58:17;10.70;99.90
41985;DHT22;28319;48.116;10.818;2023-11-19T10:03:22;10.70;99.90
41985;DHT22;28319;48.116;10.818;2023-11-19T10:08:25;10.80;99.90
41985;DHT22;28319;48.116;10.818;2023-11-19T10:13:27;10.70;99.90
41985;DHT22;28319;48.116;10.818;2023-11-19T10:18:30;10.80;99.90
41985;DHT22;28319;48.116;10.818;2023-11-19T10:23:51;10.90;99.90
41985;DHT22;28319;48.116;10.818;2023-11-19T10:28:53;11.00;99.90
41985;DHT22;28319;48.116;10.818;2023-11-19T10:33:58;11.00;99.90
41985;DHT22;28319;48.116;10.818;2023-11-19T10:39:00;11.20;99.90
41985;DHT22;28319;48.116;10.818;2023-11-19T10:44:03;11.30;99.90
41985;DHT22;28319;48.116;10.818;2023-11-19T10:49:08;11.40;99.90
41985;DHT22;28319;48.116;10.818;2023-11-19T10:54:11;11.40;99.90
41985;DHT22;28319;48.116;10.818;2023-11-19T10:59:16;11.70;99.90
41985;DHT22;28319;48.116;10.818;2023-11-19T11:04:23;11.90;99.90
41985;DHT22;28319;48.116;10.818;2023-11-19T11:09:26;11.70;99.90
41985;DHT22;28319;48.116;10.818;2023-11-19T11:14:29;12.00;99.90
41985;DHT22;28319;48.116;10.818;2023-11-19T11:19:34;12.30;99.90
41985;DHT22;28319;48.116;10.818;2023-11-19T11:24:59;12.50;99.90
41985;DHT22;28319;48.116;10.818;2023-11-19T11:30:13;12.60;99.90
41985;DHT22;28319;48.116;10.818;2023-11-19T11:35:30;12.80;99.90
41985;DHT22;28319;48.116;10.818;2023-11-19T11:40:35;13.10;99.90
41985;DHT22;28319;48.116;10.818;2023-11-19T11:45:39;13.10;99.90
41985;DHT22;28319;48.116;10.818;2023-11-19T11:50:53;13.30;99.90
41985;DHT22;28319;48.116;10.818;2023-11-19T11:55:57;13.40;99.90
41985;DHT22;28319;48.116;10.818;2023-11-19T12:01:01;13.30;99.90
41985;DHT22;28319;48.116;10.818;2023-11-19T12:06:06;13.40;99.90
41985;DHT22;28319;48.116;10.818;2023-11-19T12:11:09;13.50;99.90
41985;DHT22;28319;48.116;10.818;2023-11-19T12:16:11;13.30;99.90
41985;DHT22;28319;48.116;10.818;2023-11-19T12:21:30;13.40;99.90
41985;DHT22;28319;48.116;10.818;2023-11-19T12:26:34;13.60;99.90
41985;DHT22;28319;48.116;10.818;2023-11-19T12:31:36;13.80;99.90
41985;DHT22;28319;48.116;10.818;2023-11-19T12:36:41;13.80;99.90
41985;DHT22;28319;48.116;10.818;2023-11-19T12:41:52;13.40;99.90
41985;DHT22;28319;48.116;10.818;2023-11-19T12:47:02;13.30;99.90
41985;DHT22;28319;48.116;10.818;2023-11-19T12:52:13;13.10;99.90
41985;DHT22;28319;48.116;10.818;2023-11-19T12:57:15;13.10;99.90
41985;DHT22;28319;48.116;10.818;2023-11-19T13:02:21;13.30;99.90
41985;DHT22;28319;48.116;10.818;2023-11-19T13:07:25;13.60;99.90
41985;DHT22;28319;48.116;10.818;2023-11-19T13:12:29;13.70;99.90
41985;DHT22;28319;48.116;10.818;2023-11-19T13:17:31;13.50;99.90
41985;DHT22;28319;48.116;10.818;2023-11-19T13:22:36;13.50;99.90
41985;DHT22;28319;48.116;10.818;2023-11-19T13:27:38;13.50;99.90
41985;DHT22;28319;48.116;10.818;2023-11-19T13:32:40;13.40;99.90
41985;DHT22;28319;48.116;10.818;2023-11-19T13:37:44;13.30;99.90
41985;DHT22;28319;48.116;10.818;2023-11-19T13:42:46;13.50;99.90
41985;DHT22;28319;48.116;10.818;2023-11-19T13:47:48;13.40;99.90
41985;DHT22;28319;48.116;10.818;2023-11-19T13:52:52;13.20;99.90
41985;DHT22;28319;48.116;10.818;2023-11-19T13:57:53;12.90;99.90
41985;DHT22;28319;48.116;10.818;2023-11-19T14:02:55;13.00;99.90
41985;DHT22;28319;48.116;10.818;2023-11-19T14:07:59;13.20;99.90
41985;DHT22;28319;48.116;10.818;2023-11-19T14:13:01;13.20;99.90
41985;DHT22;28319;48.116;10.818;2023-11-19T14:18:03;13.20;99.90
41985;DHT22;28319;48.116;10.818;2023-11-19T14:23:07;13.10;99.90
41985;DHT22;28319;48.116;10.818;2023-11-19T14:28:09;13.10;99.90
41985;DHT22;28319;48.116;10.818;2023-11-19T14:33:11;13.00;99.90
41985;DHT22;28319;48.116;10.818;2023-11-19T14:38:15;12.80;99.90
41985;DHT22;28319;48.116;10.818;2023-11-19T14:43:17;12.70;99.90
41985;DHT22;28319;48.116;10.818;2023-11-19T14:48:19;12.50;99.90
41985;DHT22;28319;48.116;10.818;2023-11-19T14:53:22;12.50;99.90
41985;DHT22;28319;48.116;10.818;2023-11-19T14:58:24;12.40;99.90
41985;DHT22;28319;48.116;10.818;2023-11-19T15:03:27;12.30;99.90
41985;DHT22;28319;48.116;10.818;2023-11-19T15:08:30;12.20;99.90
41985;DHT22;28319;48.116;10.818;2023-11-19T15:13:32;12.10;99.90
41985;DHT22;28319;48.116;10.818;2023-11-19T15:18:37;12.00;99.90
41985;DHT22;28319;48.116;10.818;2023-11-19T15:23:41;11.90;99.90
41985;DHT22;28319;48.116;10.818;2023-11-19T15:28:43;11.80;99.90
41985;DHT22;28319;48.116;10.818;2023-11-19T15:33:45;11.80;99.90
41985;DHT22;28319;48.116;10.818;2023-11-19T15:38:49;11.80;99.90
41985;DHT22;28319;48.116;10.818;2023-11-19T15:43:51;11.70;99.90
41985;DHT22;28319;48.116;10.818;2023-11-19T15:48:53;11.70;99.90
41985;DHT22;28319;48.116;10.818;2023-11-19T15:53:56;11.60;99.90
41985;DHT22;28319;48.116;10.818;2023-11-19T15:58:58;11.60;99.90
41985;DHT22;28319;48.116;10.818;2023-11-19T16:04:00;11.60;99.90
41985;DHT22;28319;48.116;10.818;2023-11-19T16:09:04;11.60;99.90
41985;DHT22;28319;48.116;10.818;2023-11-19T16:14:06;11.50;99.90
41985;DHT22;28319;48.116;10.818;2023-11-19T16:19:08;11.50;99.90
41985;DHT22;28319;48.116;10.818;2023-11-19T16:24:11;11.40;99.90
41985;DHT22;28319;48.116;10.818;2023-11-19T16:29:13;11.50;99.90
41985;DHT22;28319;48.116;10.818;2023-11-19T16:34:15;11.40;99.90
41985;DHT22;28319;48.116;10.818;2023-11-19T16:39:18;11.40;99.90
41985;DHT22;28319;48.116;10.818;2023-11-19T16:44:20;11.30;99.90
41985;DHT22;28319;48.116;10.818;2023-11-19T16:49:22;11.30;99.90
41985;DHT22;28319;48.116;10.818;2023-11-19T16:54:26;11.30;99.90
41985;DHT22;28319;48.116;10.818;2023-11-19T16:59:28;11.20;99.90
41985;DHT22;28319;48.116;10.818;2023-11-19T17:04:30;11.20;99.90
41985;DHT22;28319;48.116;10.818;2023-11-19T17:09:33;11.20;99.90
41985;DHT22;28319;48.116;10.818;2023-11-19T17:14:35;11.20;99.90
41985;DHT22;28319;48.116;10.818;2023-11-19T17:19:37;11.10;99.90
41985;DHT22;28319;48.116;10.818;2023-11-19T17:24:41;11.10;99.90
41985;DHT22;28319;48.116;10.818;2023-11-19T17:29:43;11.10;99.90
41985;DHT22;28319;48.116;10.818;2023-11-19T17:34:45;11.10;99.90
41985;DHT22;28319;48.116;10.818;2023-11-19T17:39:49;11.10;99.90
41985;DHT22;28319;48.116;10.818;2023-11-19T17:44:52;11.20;99.90
41985;DHT22;28319;48.116;10.818;2023-11-19T17:49:55;11.10;99.90
41985;DHT22;28319;48.116;10.818;2023-11-19T17:54:58;11.10;99.90
41985;DHT22;28319;48.116;10.818;2023-11-19T18:00:01;11.00;99.90
41985;DHT22;28319;48.116;10.818;2023-11-19T18:05:07;11.00;99.90
41985;DHT22;28319;48.116;10.818;2023-11-19T18:10:11;11.00;99.90
41985;DHT22;28319;48.116;10.818;2023-11-19T18:15:13;10.90;99.90
41985;DHT22;28319;48.116;10.818;2023-11-19T18:20:16;10.90;99.90
41985;DHT22;28319;48.116;10.818;2023-11-19T18:25:19;10.90;99.90
41985;DHT22;28319;48.116;10.818;2023-11-19T18:30:22;10.90;99.90
41985;DHT22;28319;48.116;10.818;2023-11-19T18:35:24;10.80;99.90
41985;DHT22;28319;48.116;10.818;2023-11-19T18:40:28;10.80;99.90
41985;DHT22;28319;48.116;10.818;2023-11-19T18:45:31;10.70;99.90
41985;DHT22;28319;48.116;10.818;2023-11-19T18:50:34;10.70;99.90
41985;DHT22;28319;48.116;10.818;2023-11-19T18:55:37;10.60;99.90
41985;DHT22;28319;48.116;10.818;2023-11-19T19:00:40;10.60;99.90
41985;DHT22;28319;48.116;10.818;2023-11-19T19:05:43;10.60;99.90
41985;DHT22;28319;48.116;10.818;2023-11-19T19:10:48;10.50;99.90
41985;DHT22;28319;48.116;10.818;2023-11-19T19:15:51;10.50;99.90
41985;DHT22;28319;48.116;10.818;2023-11-19T19:20:54;10.40;99.90
41985;DHT22;28319;48.116;10.818;2023-11-19T19:25:58;10.40;99.90
41985;DHT22;28319;48.116;10.818;2023-11-19T19:31:02;10.30;99.90
41985;DHT22;28319;48.116;10.818;2023-11-19T19:36:07;10.30;99.90
41985;DHT22;28319;48.116;10.818;2023-11-19T19:41:12;10.30;99.90
41985;DHT22;28319;48.116;10.818;2023-11-19T19:46:15;10.30;99.90
41985;DHT22;28319;48.116;10.818;2023-11-19T19:51:18;10.30;99.90
41985;DHT22;28319;48.116;10.818;2023-11-19T19:56:23;10.30;99.90
41985;DHT22;28319;48.116;10.818;2023-11-19T20:01:26;10.30;99.90
41985;DHT22;28319;48.116;10.818;2023-11-19T20:06:36;10.30;99.90
41985;DHT22;28319;48.116;10.818;2023-11-19T20:11:41;10.30;99.90
41985;DHT22;28319;48.116;10.818;2023-11-19T20:16:47;10.30;99.90
41985;DHT22;28319;48.116;10.818;2023-11-19T20:21:51;10.30;99.90
41985;DHT22;28319;48.116;10.818;2023-11-19T20:26:55;10.30;99.90
41985;DHT22;28319;48.116;10.818;2023-11-19T20:31:58;10.30;99.90
41985;DHT22;28319;48.116;10.818;2023-11-19T20:37:01;10.30;99.90
41985;DHT22;28319;48.116;10.818;2023-11-19T20:42:07;10.30;99.90
41985;DHT22;28319;48.116;10.818;2023-11-19T20:47:10;10.20;99.90
41985;DHT22;28319;48.116;10.818;2023-11-19T20:52:13;10.20;99.90
41985;DHT22;28319;48.116;10.818;2023-11-19T20:57:17;10.20;99.90
41985;DHT22;28319;48.116;10.818;2023-11-19T21:02:20;10.20;99.90
41985;DHT22;28319;48.116;10.818;2023-11-19T21:07:23;10.20;99.90
41985;DHT22;28319;48.116;10.818;2023-11-19T21:12:29;10.10;99.90
41985;DHT22;28319;48.116;10.818;2023-11-19T21:17:31;10.20;99.90
41985;DHT22;28319;48.116;10.818;2023-11-19T21:22:33;10.20;99.90
41985;DHT22;28319;48.116;10.818;2023-11-19T21:27:37;10.20;99.90
41985;DHT22;28319;48.116;10.818;2023-11-19T21:32:39;10.20;99.90
41985;DHT22;28319;48.116;10.818;2023-11-19T21:37:41;10.10;99.90
41985;DHT22;28319;48.116;10.818;2023-11-19T21:42:44;10.20;99.90
41985;DHT22;28319;48.116;10.818;2023-11-19T21:47:47;10.10;99.90
41985;DHT22;28319;48.116;10.818;2023-11-19T21:52:49;10.10;99.90
41985;DHT22;28319;48.116;10.818;2023-11-19T21:57:53;10.00;99.90
41985;DHT22;28319;48.116;10.818;2023-11-19T22:02:55;10.00;99.90
41985;DHT22;28319;48.116;10.818;2023-11-19T22:07:57;10.00;99.90
41985;DHT22;28319;48.116;10.818;2023-11-19T22:13:00;10.00;99.90
41985;DHT22;28319;48.116;10.818;2023-11-19T22:18:03;9.90;99.90
41985;DHT22;28319;48.116;10.818;2023-11-19T22:23:05;9.90;99.90
41985;DHT22;28319;48.116;10.818;2023-11-19T22:28:09;9.90;99.90
41985;DHT22;28319;48.116;10.818;2023-11-19T22:33:11;9.90;99.90
41985;DHT22;28319;48.116;10.818;2023-11-19T22:38:13;9.90;99.90
41985;DHT22;28319;48.116;10.818;2023-11-19T22:43:16;10.00;99.90
41985;DHT22;28319;48.116;10.818;2023-11-19T22:48:18;9.80;99.90
41985;DHT22;28319;48.116;10.818;2023-11-19T22:53:20;9.80;99.90
41985;DHT22;28319;48.116;10.818;2023-11-19T22:58:25;9.70;99.90
41985;DHT22;28319;48.116;10.818;2023-11-19T23:03:28;9.70;99.90
41985;DHT22;28319;48.116;10.818;2023-11-19T23:08:32;9.70;99.90
41985;DHT22;28319;48.116;10.818;2023-11-19T23:13:36;9.70;99.90
41985;DHT22;28319;48.116;10.818;2023-11-19T23:18:38;9.60;99.90
41985;DHT22;28319;48.116;10.818;2023-11-19T23:23:41;9.60;99.90
41985;DHT22;28319;48.116;10.818;2023-11-19T23:28:45;9.60;99.90
41985;DHT22;28319;48.116;10.818;2023-11-19T23:33:47;9.60;99.90
41985;DHT22;28319;48.116;10.818;2023-11-19T23:38:49;9.60;99.90
41985;DHT22;28319;48.116;10.818;2023-11-19T23:43:54;9.60;99.90
41985;DHT22;28319;48.116;10.818;2023-11-19T23:48:56;9.70;99.90
41985;DHT22;28319;48.116;10.818;2023-11-19T23:53:58;9.70;99.90
41985;DHT22;28319;48.116;10.818;2023-11-19T23:59:01;9.80;99.90
